sensor_id;sensor_type;location;lat;lon;timestamp;P1;durP1;ratioP1;P2;durP2;ratioP2
9547;SDS011;4812;51.992;8.648;2023-03-03T00:02:38;21.23;;;12.50;;
9547;SDS011;4812;51.992;8.648;2023-03-03T00:05:06;29.53;;;15.63;;
9547;SDS011;4812;51.992;8.648;2023-03-03T00:07:34;27.83;;;14.50;;
9547;SDS011;4812;51.992;8.648;2023-03-03T00:13:00;29.93;;;14.60;;
9547;SDS011;4812;51.992;8.648;2023-03-03T00:15:28;23.37;;;13.23;;
9547;SDS011;4812;51.992;8.648;2023-03-03T00:17:57;26.07;;;14.20;;
9547;SDS011;4812;51.992;8.648;2023-03-03T00:20:26;23.17;;;13.63;;
9547;SDS011;4812;51.992;8.648;2023-03-03T00:23:00;21.93;;;13.40;;
9547;SDS011;4812;51.992;8.648;2023-03-03T00:25:35;24.53;;;14.83;;
9547;SDS011;4812;51.992;8.648;2023-03-03T00:28:05;23.67;;;13.27;;
9547;SDS011;4812;51.992;8.648;2023-03-03T00:33:28;25.97;;;13.80;;
9547;SDS011;4812;51.992;8.648;2023-03-03T00:35:58;25.60;;;14.40;;
9547;SDS011;4812;51.992;8.648;2023-03-03T00:39:16;24.63;;;14.63;;
9547;SDS011;4812;51.992;8.648;2023-03-03T00:41:48;23.47;;;14.00;;
9547;SDS011;4812;51.992;8.648;2023-03-03T00:44:30;24.57;;;14.40;;
9547;SDS011;4812;51.992;8.648;2023-03-03T00:47:22;23.37;;;14.70;;
9547;SDS011;4812;51.992;8.648;2023-03-03T00:52:50;23.27;;;13.97;;
9547;SDS011;4812;51.992;8.648;2023-03-03T00:55:21;26.23;;;15.30;;
9547;SDS011;4812;51.992;8.648;2023-03-03T00:57:49;23.77;;;14.77;;
9547;SDS011;4812;51.992;8.648;2023-03-03T01:00:20;23.53;;;14.27;;
9547;SDS011;4812;51.992;8.648;2023-03-03T01:02:48;24.87;;;15.40;;
9547;SDS011;4812;51.992;8.648;2023-03-03T01:05:17;23.93;;;15.40;;
9547;SDS011;4812;51.992;8.648;2023-03-03T01:10:36;24.43;;;14.23;;
9547;SDS011;4812;51.992;8.648;2023-03-03T01:13:05;21.80;;;14.83;;
9547;SDS011;4812;51.992;8.648;2023-03-03T01:15:34;24.73;;;15.03;;
9547;SDS011;4812;51.992;8.648;2023-03-03T01:18:02;22.13;;;13.80;;
9547;SDS011;4812;51.992;8.648;2023-03-03T01:20:30;23.53;;;15.03;;
9547;SDS011;4812;51.992;8.648;2023-03-03T01:22:57;21.27;;;14.03;;
9547;SDS011;4812;51.992;8.648;2023-03-03T01:28:29;22.33;;;14.53;;
9547;SDS011;4812;51.992;8.648;2023-03-03T01:30:59;21.83;;;13.87;;
9547;SDS011;4812;51.992;8.648;2023-03-03T01:33:27;22.43;;;13.57;;
9547;SDS011;4812;51.992;8.648;2023-03-03T01:35:54;23.23;;;14.70;;
9547;SDS011;4812;51.992;8.648;2023-03-03T01:38:22;25.20;;;14.37;;
9547;SDS011;4812;51.992;8.648;2023-03-03T01:40:53;22.73;;;13.83;;
9547;SDS011;4812;51.992;8.648;2023-03-03T01:43:22;26.40;;;14.80;;
9547;SDS011;4812;51.992;8.648;2023-03-03T01:49:06;21.60;;;13.07;;
9547;SDS011;4812;51.992;8.648;2023-03-03T01:51:37;23.67;;;15.00;;
9547;SDS011;4812;51.992;8.648;2023-03-03T01:54:09;24.70;;;14.20;;
9547;SDS011;4812;51.992;8.648;2023-03-03T01:56:38;24.00;;;14.30;;
9547;SDS011;4812;51.992;8.648;2023-03-03T02:02:09;20.73;;;13.93;;
9547;SDS011;4812;51.992;8.648;2023-03-03T02:04:39;23.83;;;13.77;;
9547;SDS011;4812;51.992;8.648;2023-03-03T02:10:09;24.23;;;15.03;;
9547;SDS011;4812;51.992;8.648;2023-03-03T02:12:39;25.07;;;14.40;;
9547;SDS011;4812;51.992;8.648;2023-03-03T02:15:15;24.37;;;15.10;;
9547;SDS011;4812;51.992;8.648;2023-03-03T02:17:44;24.23;;;14.60;;
9547;SDS011;4812;51.992;8.648;2023-03-03T02:20:14;23.07;;;13.73;;
9547;SDS011;4812;51.992;8.648;2023-03-03T02:22:46;22.57;;;14.17;;
9547;SDS011;4812;51.992;8.648;2023-03-03T02:25:19;23.00;;;14.33;;
9547;SDS011;4812;51.992;8.648;2023-03-03T02:27:50;26.43;;;14.97;;
9547;SDS011;4812;51.992;8.648;2023-03-03T02:33:21;25.77;;;14.23;;
9547;SDS011;4812;51.992;8.648;2023-03-03T02:35:49;28.37;;;14.40;;
9547;SDS011;4812;51.992;8.648;2023-03-03T02:38:20;24.90;;;14.50;;
9547;SDS011;4812;51.992;8.648;2023-03-03T02:40:52;24.17;;;13.10;;
9547;SDS011;4812;51.992;8.648;2023-03-03T02:43:28;28.33;;;14.67;;
9547;SDS011;4812;51.992;8.648;2023-03-03T02:48:27;20.43;;;12.27;;
9547;SDS011;4812;51.992;8.648;2023-03-03T02:50:55;27.67;;;14.13;;
9547;SDS011;4812;51.992;8.648;2023-03-03T02:53:22;26.37;;;14.83;;
9547;SDS011;4812;51.992;8.648;2023-03-03T02:55:51;28.90;;;15.53;;
9547;SDS011;4812;51.992;8.648;2023-03-03T02:58:18;26.03;;;14.50;;
9547;SDS011;4812;51.992;8.648;2023-03-03T03:00:47;25.43;;;14.50;;
9547;SDS011;4812;51.992;8.648;2023-03-03T03:03:19;26.33;;;14.40;;
9547;SDS011;4812;51.992;8.648;2023-03-03T03:05:48;25.10;;;14.80;;
9547;SDS011;4812;51.992;8.648;2023-03-03T03:08:18;25.90;;;14.07;;
9547;SDS011;4812;51.992;8.648;2023-03-03T03:13:48;23.40;;;13.37;;
9547;SDS011;4812;51.992;8.648;2023-03-03T03:16:18;29.67;;;14.97;;
9547;SDS011;4812;51.992;8.648;2023-03-03T03:18:46;24.33;;;14.77;;
9547;SDS011;4812;51.992;8.648;2023-03-03T03:21:15;28.40;;;14.43;;
9547;SDS011;4812;51.992;8.648;2023-03-03T03:26:31;26.97;;;14.47;;
9547;SDS011;4812;51.992;8.648;2023-03-03T03:28:59;24.90;;;13.87;;
9547;SDS011;4812;51.992;8.648;2023-03-03T03:31:28;25.93;;;15.30;;
9547;SDS011;4812;51.992;8.648;2023-03-03T03:33:56;28.07;;;15.20;;
9547;SDS011;4812;51.992;8.648;2023-03-03T03:36:26;26.47;;;14.77;;
9547;SDS011;4812;51.992;8.648;2023-03-03T03:38:54;30.77;;;15.67;;
9547;SDS011;4812;51.992;8.648;2023-03-03T03:41:22;23.33;;;14.47;;
9547;SDS011;4812;51.992;8.648;2023-03-03T03:43:49;30.43;;;15.73;;
9547;SDS011;4812;51.992;8.648;2023-03-03T03:46:17;29.67;;;15.60;;
9547;SDS011;4812;51.992;8.648;2023-03-03T03:48:46;29.93;;;16.13;;
9547;SDS011;4812;51.992;8.648;2023-03-03T03:54:05;27.23;;;15.97;;
9547;SDS011;4812;51.992;8.648;2023-03-03T03:56:34;31.50;;;16.27;;
9547;SDS011;4812;51.992;8.648;2023-03-03T03:59:04;30.13;;;16.13;;
9547;SDS011;4812;51.992;8.648;2023-03-03T04:01:32;28.57;;;15.57;;
9547;SDS011;4812;51.992;8.648;2023-03-03T04:04:01;34.40;;;16.83;;
9547;SDS011;4812;51.992;8.648;2023-03-03T04:06:29;32.00;;;15.70;;
9547;SDS011;4812;51.992;8.648;2023-03-03T04:11:55;43.97;;;19.13;;
9547;SDS011;4812;51.992;8.648;2023-03-03T04:14:24;45.80;;;19.33;;
9547;SDS011;4812;51.992;8.648;2023-03-03T04:16:53;55.77;;;20.50;;
9547;SDS011;4812;51.992;8.648;2023-03-03T04:19:22;53.00;;;20.57;;
9547;SDS011;4812;51.992;8.648;2023-03-03T04:21:50;48.43;;;20.90;;
9547;SDS011;4812;51.992;8.648;2023-03-03T04:24:17;54.10;;;20.33;;
9547;SDS011;4812;51.992;8.648;2023-03-03T04:29:46;56.97;;;21.30;;
9547;SDS011;4812;51.992;8.648;2023-03-03T04:32:14;57.20;;;21.90;;
9547;SDS011;4812;51.992;8.648;2023-03-03T04:34:46;54.20;;;20.77;;
9547;SDS011;4812;51.992;8.648;2023-03-03T04:37:24;60.93;;;21.67;;
9547;SDS011;4812;51.992;8.648;2023-03-03T04:39:52;59.73;;;21.80;;
9547;SDS011;4812;51.992;8.648;2023-03-03T04:42:20;62.63;;;21.03;;
9547;SDS011;4812;51.992;8.648;2023-03-03T04:47:36;52.67;;;20.27;;
9547;SDS011;4812;51.992;8.648;2023-03-03T04:50:07;60.33;;;20.80;;
9547;SDS011;4812;51.992;8.648;2023-03-03T04:52:36;53.30;;;20.17;;
9547;SDS011;4812;51.992;8.648;2023-03-03T04:55:06;59.63;;;21.10;;
9547;SDS011;4812;51.992;8.648;2023-03-03T04:57:36;50.70;;;19.77;;
9547;SDS011;4812;51.992;8.648;2023-03-03T05:03:06;58.57;;;21.07;;
9547;SDS011;4812;51.992;8.648;2023-03-03T05:05:35;60.03;;;20.77;;
9547;SDS011;4812;51.992;8.648;2023-03-03T05:11:05;56.13;;;21.17;;
9547;SDS011;4812;51.992;8.648;2023-03-03T05:13:33;57.20;;;18.80;;
9547;SDS011;4812;51.992;8.648;2023-03-03T05:16:32;57.33;;;19.27;;
9547;SDS011;4812;51.992;8.648;2023-03-03T05:19:00;59.40;;;21.07;;
9547;SDS011;4812;51.992;8.648;2023-03-03T05:21:29;60.93;;;20.53;;
9547;SDS011;4812;51.992;8.648;2023-03-03T05:23:56;62.40;;;21.63;;
9547;SDS011;4812;51.992;8.648;2023-03-03T05:26:23;63.67;;;21.23;;
9547;SDS011;4812;51.992;8.648;2023-03-03T05:28:51;59.67;;;20.63;;
9547;SDS011;4812;51.992;8.648;2023-03-03T05:31:18;60.37;;;20.00;;
9547;SDS011;4812;51.992;8.648;2023-03-03T05:33:46;53.23;;;19.07;;
9547;SDS011;4812;51.992;8.648;2023-03-03T05:36:14;55.00;;;19.73;;
9547;SDS011;4812;51.992;8.648;2023-03-03T05:38:42;60.63;;;21.60;;
9547;SDS011;4812;51.992;8.648;2023-03-03T05:41:10;66.13;;;19.93;;
9547;SDS011;4812;51.992;8.648;2023-03-03T05:43:37;64.07;;;20.40;;
9547;SDS011;4812;51.992;8.648;2023-03-03T05:46:06;56.57;;;20.53;;
9547;SDS011;4812;51.992;8.648;2023-03-03T05:48:33;57.57;;;19.37;;
9547;SDS011;4812;51.992;8.648;2023-03-03T05:51:01;57.10;;;20.30;;
9547;SDS011;4812;51.992;8.648;2023-03-03T05:53:28;54.83;;;19.03;;
9547;SDS011;4812;51.992;8.648;2023-03-03T05:55:57;55.53;;;19.03;;
9547;SDS011;4812;51.992;8.648;2023-03-03T05:58:28;64.75;;;19.65;;
9547;SDS011;4812;51.992;8.648;2023-03-03T06:00:57;59.57;;;19.13;;
9547;SDS011;4812;51.992;8.648;2023-03-03T06:03:24;59.43;;;20.00;;
9547;SDS011;4812;51.992;8.648;2023-03-03T06:05:52;50.70;;;17.80;;
9547;SDS011;4812;51.992;8.648;2023-03-03T06:08:19;46.93;;;18.50;;
9547;SDS011;4812;51.992;8.648;2023-03-03T06:10:47;60.37;;;20.37;;
9547;SDS011;4812;51.992;8.648;2023-03-03T06:13:16;51.03;;;17.27;;
9547;SDS011;4812;51.992;8.648;2023-03-03T06:15:43;49.33;;;17.13;;
9547;SDS011;4812;51.992;8.648;2023-03-03T06:21:09;46.27;;;17.17;;
9547;SDS011;4812;51.992;8.648;2023-03-03T06:23:37;43.40;;;17.00;;
9547;SDS011;4812;51.992;8.648;2023-03-03T06:29:03;39.60;;;16.37;;
9547;SDS011;4812;51.992;8.648;2023-03-03T06:31:30;44.17;;;17.70;;
9547;SDS011;4812;51.992;8.648;2023-03-03T06:34:28;45.37;;;16.87;;
9547;SDS011;4812;51.992;8.648;2023-03-03T06:36:56;45.97;;;16.73;;
9547;SDS011;4812;51.992;8.648;2023-03-03T06:39:23;46.30;;;17.73;;
9547;SDS011;4812;51.992;8.648;2023-03-03T06:41:51;44.87;;;18.00;;
9547;SDS011;4812;51.992;8.648;2023-03-03T06:47:19;41.27;;;16.00;;
9547;SDS011;4812;51.992;8.648;2023-03-03T06:49:46;48.70;;;17.67;;
9547;SDS011;4812;51.992;8.648;2023-03-03T06:52:16;48.07;;;17.07;;
9547;SDS011;4812;51.992;8.648;2023-03-03T06:54:47;51.83;;;17.40;;
9547;SDS011;4812;51.992;8.648;2023-03-03T06:57:16;55.27;;;18.43;;
9547;SDS011;4812;51.992;8.648;2023-03-03T06:59:50;44.37;;;18.50;;
9547;SDS011;4812;51.992;8.648;2023-03-03T07:02:20;49.30;;;17.40;;
9547;SDS011;4812;51.992;8.648;2023-03-03T07:04:49;46.23;;;17.60;;
9547;SDS011;4812;51.992;8.648;2023-03-03T07:07:17;45.10;;;17.23;;
9547;SDS011;4812;51.992;8.648;2023-03-03T07:09:47;37.50;;;17.37;;
9547;SDS011;4812;51.992;8.648;2023-03-03T07:12:17;42.43;;;16.83;;
9547;SDS011;4812;51.992;8.648;2023-03-03T07:14:47;46.70;;;18.23;;
9547;SDS011;4812;51.992;8.648;2023-03-03T07:17:22;47.13;;;17.47;;
9547;SDS011;4812;51.992;8.648;2023-03-03T07:22:39;44.43;;;16.63;;
9547;SDS011;4812;51.992;8.648;2023-03-03T07:25:08;45.87;;;17.43;;
9547;SDS011;4812;51.992;8.648;2023-03-03T07:30:28;43.27;;;16.97;;
9547;SDS011;4812;51.992;8.648;2023-03-03T07:32:57;37.70;;;16.43;;
9547;SDS011;4812;51.992;8.648;2023-03-03T07:35:28;34.70;;;16.03;;
9547;SDS011;4812;51.992;8.648;2023-03-03T07:38:01;35.80;;;15.93;;
9547;SDS011;4812;51.992;8.648;2023-03-03T07:40:32;39.93;;;15.17;;
9547;SDS011;4812;51.992;8.648;2023-03-03T07:43:12;34.17;;;14.60;;
9547;SDS011;4812;51.992;8.648;2023-03-03T07:45:48;38.93;;;15.57;;
9547;SDS011;4812;51.992;8.648;2023-03-03T07:48:18;32.80;;;14.50;;
9547;SDS011;4812;51.992;8.648;2023-03-03T07:50:50;35.53;;;15.93;;
9547;SDS011;4812;51.992;8.648;2023-03-03T07:53:21;36.00;;;16.03;;
9547;SDS011;4812;51.992;8.648;2023-03-03T07:55:52;29.43;;;14.03;;
9547;SDS011;4812;51.992;8.648;2023-03-03T07:58:20;27.57;;;14.03;;
9547;SDS011;4812;51.992;8.648;2023-03-03T08:03:51;26.33;;;13.30;;
9547;SDS011;4812;51.992;8.648;2023-03-03T08:09:45;29.80;;;13.70;;
9547;SDS011;4812;51.992;8.648;2023-03-03T08:12:23;34.73;;;15.33;;
9547;SDS011;4812;51.992;8.648;2023-03-03T08:14:57;36.70;;;15.40;;
9547;SDS011;4812;51.992;8.648;2023-03-03T08:17:38;36.03;;;15.37;;
9547;SDS011;4812;51.992;8.648;2023-03-03T08:20:10;38.67;;;17.30;;
9547;SDS011;4812;51.992;8.648;2023-03-03T08:23:05;43.60;;;17.50;;
9547;SDS011;4812;51.992;8.648;2023-03-03T08:25:32;39.57;;;17.53;;
9547;SDS011;4812;51.992;8.648;2023-03-03T08:28:00;39.47;;;17.23;;
9547;SDS011;4812;51.992;8.648;2023-03-03T08:30:27;29.30;;;14.63;;
9547;SDS011;4812;51.992;8.648;2023-03-03T08:32:56;31.70;;;14.37;;
9547;SDS011;4812;51.992;8.648;2023-03-03T08:38:28;24.13;;;12.97;;
9547;SDS011;4812;51.992;8.648;2023-03-03T08:40:55;25.57;;;13.23;;
9547;SDS011;4812;51.992;8.648;2023-03-03T08:43:22;23.50;;;12.93;;
9547;SDS011;4812;51.992;8.648;2023-03-03T08:45:51;22.50;;;12.13;;
9547;SDS011;4812;51.992;8.648;2023-03-03T08:48:19;25.53;;;14.07;;
9547;SDS011;4812;51.992;8.648;2023-03-03T08:53:41;29.57;;;14.00;;
9547;SDS011;4812;51.992;8.648;2023-03-03T08:56:08;29.97;;;13.83;;
9547;SDS011;4812;51.992;8.648;2023-03-03T08:58:36;29.23;;;14.37;;
9547;SDS011;4812;51.992;8.648;2023-03-03T09:04:08;21.27;;;12.27;;
9547;SDS011;4812;51.992;8.648;2023-03-03T09:06:36;29.23;;;14.10;;
9547;SDS011;4812;51.992;8.648;2023-03-03T09:09:05;28.40;;;14.27;;
9547;SDS011;4812;51.992;8.648;2023-03-03T09:11:33;30.37;;;14.33;;
9547;SDS011;4812;51.992;8.648;2023-03-03T09:16:50;21.40;;;12.77;;
9547;SDS011;4812;51.992;8.648;2023-03-03T09:19:20;23.87;;;12.27;;
9547;SDS011;4812;51.992;8.648;2023-03-03T09:21:50;21.07;;;12.27;;
9547;SDS011;4812;51.992;8.648;2023-03-03T09:24:24;25.80;;;13.53;;
9547;SDS011;4812;51.992;8.648;2023-03-03T09:26:54;27.17;;;12.83;;
9547;SDS011;4812;51.992;8.648;2023-03-03T09:32:32;27.83;;;13.23;;
9547;SDS011;4812;51.992;8.648;2023-03-03T09:38:01;25.30;;;13.43;;
9547;SDS011;4812;51.992;8.648;2023-03-03T09:40:44;29.83;;;15.43;;
9547;SDS011;4812;51.992;8.648;2023-03-03T09:43:19;25.47;;;14.47;;
9547;SDS011;4812;51.992;8.648;2023-03-03T09:48:57;26.93;;;14.30;;
9547;SDS011;4812;51.992;8.648;2023-03-03T09:54:39;22.67;;;13.37;;
9547;SDS011;4812;51.992;8.648;2023-03-03T09:57:15;23.70;;;12.83;;
9547;SDS011;4812;51.992;8.648;2023-03-03T09:59:48;20.13;;;12.33;;
9547;SDS011;4812;51.992;8.648;2023-03-03T10:02:37;20.20;;;12.60;;
9547;SDS011;4812;51.992;8.648;2023-03-03T10:07:43;24.00;;;13.50;;
9547;SDS011;4812;51.992;8.648;2023-03-03T10:10:19;25.40;;;14.00;;
9547;SDS011;4812;51.992;8.648;2023-03-03T10:12:57;19.73;;;12.50;;
9547;SDS011;4812;51.992;8.648;2023-03-03T10:15:36;21.33;;;12.70;;
9547;SDS011;4812;51.992;8.648;2023-03-03T10:18:11;22.17;;;12.17;;
9547;SDS011;4812;51.992;8.648;2023-03-03T10:20:46;23.80;;;13.53;;
9547;SDS011;4812;51.992;8.648;2023-03-03T10:23:20;22.80;;;13.17;;
9547;SDS011;4812;51.992;8.648;2023-03-03T10:25:55;22.87;;;13.57;;
9547;SDS011;4812;51.992;8.648;2023-03-03T10:31:22;24.53;;;14.93;;
9547;SDS011;4812;51.992;8.648;2023-03-03T10:34:01;24.53;;;13.70;;
9547;SDS011;4812;51.992;8.648;2023-03-03T10:36:39;22.00;;;14.07;;
9547;SDS011;4812;51.992;8.648;2023-03-03T10:39:19;26.03;;;14.00;;
9547;SDS011;4812;51.992;8.648;2023-03-03T10:41:55;27.97;;;14.73;;
9547;SDS011;4812;51.992;8.648;2023-03-03T10:47:40;25.33;;;15.03;;
9547;SDS011;4812;51.992;8.648;2023-03-03T10:50:16;28.07;;;15.47;;
9547;SDS011;4812;51.992;8.648;2023-03-03T10:52:48;24.67;;;14.43;;
9547;SDS011;4812;51.992;8.648;2023-03-03T10:58:30;28.63;;;15.83;;
9547;SDS011;4812;51.992;8.648;2023-03-03T11:01:13;25.47;;;15.60;;
9547;SDS011;4812;51.992;8.648;2023-03-03T11:03:57;31.20;;;17.47;;
9547;SDS011;4812;51.992;8.648;2023-03-03T11:06:32;30.50;;;17.77;;
9547;SDS011;4812;51.992;8.648;2023-03-03T11:12:09;29.60;;;16.37;;
9547;SDS011;4812;51.992;8.648;2023-03-03T11:17:53;29.13;;;17.03;;
9547;SDS011;4812;51.992;8.648;2023-03-03T11:20:30;33.17;;;18.10;;
9547;SDS011;4812;51.992;8.648;2023-03-03T11:23:04;33.40;;;17.67;;
9547;SDS011;4812;51.992;8.648;2023-03-03T11:25:44;36.20;;;18.60;;
9547;SDS011;4812;51.992;8.648;2023-03-03T11:31:08;34.97;;;19.67;;
9547;SDS011;4812;51.992;8.648;2023-03-03T11:33:41;30.90;;;18.27;;
9547;SDS011;4812;51.992;8.648;2023-03-03T11:36:17;34.80;;;18.97;;
9547;SDS011;4812;51.992;8.648;2023-03-03T11:38:49;33.13;;;18.70;;
9547;SDS011;4812;51.992;8.648;2023-03-03T11:41:22;30.40;;;17.53;;
9547;SDS011;4812;51.992;8.648;2023-03-03T11:43:57;34.23;;;19.30;;
9547;SDS011;4812;51.992;8.648;2023-03-03T11:46:33;38.07;;;20.77;;
9547;SDS011;4812;51.992;8.648;2023-03-03T11:49:04;42.50;;;21.03;;
9547;SDS011;4812;51.992;8.648;2023-03-03T11:51:36;39.80;;;20.13;;
9547;SDS011;4812;51.992;8.648;2023-03-03T11:54:14;43.00;;;20.00;;
9547;SDS011;4812;51.992;8.648;2023-03-03T11:56:45;35.53;;;19.43;;
9547;SDS011;4812;51.992;8.648;2023-03-03T11:59:27;35.80;;;19.87;;
9547;SDS011;4812;51.992;8.648;2023-03-03T12:02:38;35.30;;;19.17;;
9547;SDS011;4812;51.992;8.648;2023-03-03T12:05:13;39.27;;;20.03;;
9547;SDS011;4812;51.992;8.648;2023-03-03T12:07:53;35.10;;;19.30;;
9547;SDS011;4812;51.992;8.648;2023-03-03T12:10:25;36.60;;;19.80;;
9547;SDS011;4812;51.992;8.648;2023-03-03T12:15:54;37.50;;;20.17;;
9547;SDS011;4812;51.992;8.648;2023-03-03T12:18:32;36.67;;;19.60;;
9547;SDS011;4812;51.992;8.648;2023-03-03T12:21:09;34.77;;;19.97;;
9547;SDS011;4812;51.992;8.648;2023-03-03T12:23:50;39.40;;;20.00;;
9547;SDS011;4812;51.992;8.648;2023-03-03T12:26:31;33.33;;;19.20;;
9547;SDS011;4812;51.992;8.648;2023-03-03T12:29:03;39.10;;;20.33;;
9547;SDS011;4812;51.992;8.648;2023-03-03T12:34:23;41.17;;;21.27;;
9547;SDS011;4812;51.992;8.648;2023-03-03T12:36:57;36.57;;;19.87;;
9547;SDS011;4812;51.992;8.648;2023-03-03T12:39:35;38.63;;;20.00;;
9547;SDS011;4812;51.992;8.648;2023-03-03T12:42:10;39.63;;;19.27;;
9547;SDS011;4812;51.992;8.648;2023-03-03T12:44:42;41.57;;;19.23;;
9547;SDS011;4812;51.992;8.648;2023-03-03T12:47:14;42.93;;;20.77;;
9547;SDS011;4812;51.992;8.648;2023-03-03T12:49:50;44.00;;;19.37;;
9547;SDS011;4812;51.992;8.648;2023-03-03T12:52:49;40.10;;;17.80;;
9547;SDS011;4812;51.992;8.648;2023-03-03T12:55:21;39.97;;;18.47;;
9547;SDS011;4812;51.992;8.648;2023-03-03T13:00:53;40.67;;;18.63;;
9547;SDS011;4812;51.992;8.648;2023-03-03T13:03:28;44.77;;;19.87;;
9547;SDS011;4812;51.992;8.648;2023-03-03T13:06:30;41.70;;;19.80;;
9547;SDS011;4812;51.992;8.648;2023-03-03T13:09:06;40.53;;;18.93;;
9547;SDS011;4812;51.992;8.648;2023-03-03T13:11:45;37.93;;;18.67;;
9547;SDS011;4812;51.992;8.648;2023-03-03T13:14:24;41.23;;;18.57;;
9547;SDS011;4812;51.992;8.648;2023-03-03T13:19:59;45.37;;;20.10;;
9547;SDS011;4812;51.992;8.648;2023-03-03T13:22:32;36.77;;;17.80;;
9547;SDS011;4812;51.992;8.648;2023-03-03T13:25:05;43.33;;;19.27;;
9547;SDS011;4812;51.992;8.648;2023-03-03T13:27:36;42.43;;;19.80;;
9547;SDS011;4812;51.992;8.648;2023-03-03T13:30:11;38.07;;;18.93;;
9547;SDS011;4812;51.992;8.648;2023-03-03T13:32:43;42.90;;;18.87;;
9547;SDS011;4812;51.992;8.648;2023-03-03T13:35:52;39.13;;;18.70;;
9547;SDS011;4812;51.992;8.648;2023-03-03T13:38:23;32.77;;;16.80;;
9547;SDS011;4812;51.992;8.648;2023-03-03T13:40:53;36.33;;;18.70;;
9547;SDS011;4812;51.992;8.648;2023-03-03T13:43:27;35.00;;;17.67;;
9547;SDS011;4812;51.992;8.648;2023-03-03T13:48:59;37.77;;;18.83;;
9547;SDS011;4812;51.992;8.648;2023-03-03T13:51:36;37.93;;;18.43;;
9547;SDS011;4812;51.992;8.648;2023-03-03T13:54:47;36.33;;;17.70;;
9547;SDS011;4812;51.992;8.648;2023-03-03T13:57:26;37.03;;;17.77;;
9547;SDS011;4812;51.992;8.648;2023-03-03T14:00:03;35.90;;;17.40;;
9547;SDS011;4812;51.992;8.648;2023-03-03T14:02:54;35.07;;;17.00;;
9547;SDS011;4812;51.992;8.648;2023-03-03T14:05:32;30.50;;;16.57;;
9547;SDS011;4812;51.992;8.648;2023-03-03T14:08:06;30.23;;;16.20;;
9547;SDS011;4812;51.992;8.648;2023-03-03T14:10:40;30.77;;;15.97;;
9547;SDS011;4812;51.992;8.648;2023-03-03T14:13:11;28.57;;;15.50;;
9547;SDS011;4812;51.992;8.648;2023-03-03T14:15:42;32.87;;;15.47;;
9547;SDS011;4812;51.992;8.648;2023-03-03T14:18:17;33.23;;;17.33;;
9547;SDS011;4812;51.992;8.648;2023-03-03T14:20:50;29.30;;;15.87;;
9547;SDS011;4812;51.992;8.648;2023-03-03T14:23:19;29.83;;;15.57;;
9547;SDS011;4812;51.992;8.648;2023-03-03T14:29:02;29.40;;;14.65;;
9547;SDS011;4812;51.992;8.648;2023-03-03T14:31:37;25.70;;;14.80;;
9547;SDS011;4812;51.992;8.648;2023-03-03T14:34:13;27.67;;;14.40;;
9547;SDS011;4812;51.992;8.648;2023-03-03T14:36:59;28.63;;;15.43;;
9547;SDS011;4812;51.992;8.648;2023-03-03T14:39:46;27.87;;;14.23;;
9547;SDS011;4812;51.992;8.648;2023-03-03T14:42:29;29.37;;;14.90;;
9547;SDS011;4812;51.992;8.648;2023-03-03T14:45:00;25.40;;;13.57;;
9547;SDS011;4812;51.992;8.648;2023-03-03T14:47:30;26.93;;;14.97;;
9547;SDS011;4812;51.992;8.648;2023-03-03T14:53:10;23.77;;;14.00;;
9547;SDS011;4812;51.992;8.648;2023-03-03T14:55:41;25.67;;;14.00;;
9547;SDS011;4812;51.992;8.648;2023-03-03T14:58:29;22.53;;;14.60;;
9547;SDS011;4812;51.992;8.648;2023-03-03T15:03:49;23.70;;;13.10;;
9547;SDS011;4812;51.992;8.648;2023-03-03T15:06:28;24.27;;;12.77;;
9547;SDS011;4812;51.992;8.648;2023-03-03T15:11:59;22.83;;;12.83;;
9547;SDS011;4812;51.992;8.648;2023-03-03T15:14:30;27.13;;;12.97;;
9547;SDS011;4812;51.992;8.648;2023-03-03T15:19:57;21.77;;;12.23;;
9547;SDS011;4812;51.992;8.648;2023-03-03T15:22:43;24.30;;;13.43;;
9547;SDS011;4812;51.992;8.648;2023-03-03T15:25:14;22.73;;;12.77;;
9547;SDS011;4812;51.992;8.648;2023-03-03T15:27:48;25.83;;;12.53;;
9547;SDS011;4812;51.992;8.648;2023-03-03T15:30:20;23.80;;;12.63;;
9547;SDS011;4812;51.992;8.648;2023-03-03T15:32:53;22.37;;;11.67;;
9547;SDS011;4812;51.992;8.648;2023-03-03T15:35:30;18.90;;;12.00;;
9547;SDS011;4812;51.992;8.648;2023-03-03T15:41:09;23.20;;;12.80;;
9547;SDS011;4812;51.992;8.648;2023-03-03T15:43:47;26.87;;;12.97;;
9547;SDS011;4812;51.992;8.648;2023-03-03T15:46:20;22.47;;;12.40;;
9547;SDS011;4812;51.992;8.648;2023-03-03T15:48:57;22.90;;;12.33;;
9547;SDS011;4812;51.992;8.648;2023-03-03T15:51:35;21.73;;;12.00;;
9547;SDS011;4812;51.992;8.648;2023-03-03T15:57:13;20.07;;;11.93;;
9547;SDS011;4812;51.992;8.648;2023-03-03T15:59:47;23.07;;;11.53;;
9547;SDS011;4812;51.992;8.648;2023-03-03T16:02:42;24.50;;;12.07;;
9547;SDS011;4812;51.992;8.648;2023-03-03T16:08:20;20.20;;;11.97;;
9547;SDS011;4812;51.992;8.648;2023-03-03T16:10:54;28.07;;;12.27;;
9547;SDS011;4812;51.992;8.648;2023-03-03T16:16:27;25.73;;;12.10;;
9547;SDS011;4812;51.992;8.648;2023-03-03T16:19:02;23.53;;;12.37;;
9547;SDS011;4812;51.992;8.648;2023-03-03T16:21:40;26.97;;;13.20;;
9547;SDS011;4812;51.992;8.648;2023-03-03T16:24:19;25.47;;;12.93;;
9547;SDS011;4812;51.992;8.648;2023-03-03T16:26:52;29.60;;;13.47;;
9547;SDS011;4812;51.992;8.648;2023-03-03T16:29:27;22.77;;;13.03;;
9547;SDS011;4812;51.992;8.648;2023-03-03T16:32:01;27.27;;;13.50;;
9547;SDS011;4812;51.992;8.648;2023-03-03T16:34:32;20.00;;;12.47;;
9547;SDS011;4812;51.992;8.648;2023-03-03T16:37:06;23.60;;;13.10;;
9547;SDS011;4812;51.992;8.648;2023-03-03T16:42:44;22.13;;;13.93;;
9547;SDS011;4812;51.992;8.648;2023-03-03T16:48:24;21.37;;;12.53;;
9547;SDS011;4812;51.992;8.648;2023-03-03T16:51:02;26.87;;;13.27;;
9547;SDS011;4812;51.992;8.648;2023-03-03T16:53:40;23.87;;;13.73;;
9547;SDS011;4812;51.992;8.648;2023-03-03T17:22:21;40.07;;;16.83;;
9547;SDS011;4812;51.992;8.648;2023-03-03T17:24:59;33.60;;;15.33;;
9547;SDS011;4812;51.992;8.648;2023-03-03T17:27:33;33.30;;;16.03;;
9547;SDS011;4812;51.992;8.648;2023-03-03T17:30:09;31.23;;;14.90;;
9547;SDS011;4812;51.992;8.648;2023-03-03T17:32:47;34.57;;;15.33;;
9547;SDS011;4812;51.992;8.648;2023-03-03T17:35:22;37.73;;;16.27;;
9547;SDS011;4812;51.992;8.648;2023-03-03T17:41:02;38.20;;;16.27;;
9547;SDS011;4812;51.992;8.648;2023-03-03T17:43:33;44.10;;;17.27;;
9547;SDS011;4812;51.992;8.648;2023-03-03T17:46:16;35.73;;;17.97;;
9547;SDS011;4812;51.992;8.648;2023-03-03T17:48:56;38.97;;;17.93;;
9547;SDS011;4812;51.992;8.648;2023-03-03T17:51:35;38.07;;;16.80;;
9547;SDS011;4812;51.992;8.648;2023-03-03T17:57:19;40.03;;;16.73;;
9547;SDS011;4812;51.992;8.648;2023-03-03T18:00:13;37.00;;;15.87;;
9547;SDS011;4812;51.992;8.648;2023-03-03T18:03:02;31.73;;;15.53;;
9547;SDS011;4812;51.992;8.648;2023-03-03T18:05:47;40.80;;;16.27;;
9547;SDS011;4812;51.992;8.648;2023-03-03T18:08:26;39.47;;;16.00;;
9547;SDS011;4812;51.992;8.648;2023-03-03T18:11:12;36.60;;;16.07;;
9547;SDS011;4812;51.992;8.648;2023-03-03T18:13:47;46.37;;;17.50;;
9547;SDS011;4812;51.992;8.648;2023-03-03T18:16:23;34.50;;;16.40;;
9547;SDS011;4812;51.992;8.648;2023-03-03T18:19:02;41.90;;;16.00;;
9547;SDS011;4812;51.992;8.648;2023-03-03T18:21:42;38.67;;;16.40;;
9547;SDS011;4812;51.992;8.648;2023-03-03T18:24:14;36.83;;;15.93;;
9547;SDS011;4812;51.992;8.648;2023-03-03T18:26:53;42.77;;;16.53;;
9547;SDS011;4812;51.992;8.648;2023-03-03T18:29:24;40.17;;;17.17;;
9547;SDS011;4812;51.992;8.648;2023-03-03T18:32:00;39.37;;;16.53;;
9547;SDS011;4812;51.992;8.648;2023-03-03T18:34:35;37.50;;;17.20;;
9547;SDS011;4812;51.992;8.648;2023-03-03T18:37:06;39.57;;;16.90;;
9547;SDS011;4812;51.992;8.648;2023-03-03T18:39:45;40.13;;;17.40;;
9547;SDS011;4812;51.992;8.648;2023-03-03T18:42:33;42.93;;;18.07;;
9547;SDS011;4812;51.992;8.648;2023-03-03T18:48:03;39.57;;;16.57;;